Lake Junaluska, North Carolina
Current Conditions -  °F | °C
As of 3:54 AM on Wednesday 26 Nov 2014 (Local Time) from KAVL Reporting Station
Light Rain Light Rain  
Wind Chill: 36°   Ceiling: 5000
Heat Index: 41°   Visibility: 9mi
Dew Point: 39°   Wind: 7mph
Humidity: 93%   Direction: 350°N
Pressure: 29.95"   Gusts: NA
Location:  35.53°N, 82.98°W
Report Text: KAVL 260854Z AUTO 35006KT 9SM -RA OVC050 05/04 A2995 RMK AO2 SLP136 P0005 60020 T00500039 58025
Loading
Personal Weather Stations






























Interactive Weather Map New forecast layout! Learn more

10-Day Weather Forecast

Advertisements
Track Severe Weather on mobile